createdAt,value
2018-12-26T00:02:04.100Z,99014.20
2018-12-26T00:04:32.269Z,99025.16
2018-12-26T00:07:00.617Z,99029.98
2018-12-26T00:09:28.846Z,99017.95
2018-12-26T00:11:57.006Z,99021.36
2018-12-26T00:14:25.202Z,99025.60
2018-12-26T00:16:53.367Z,99021.77
2018-12-26T00:19:21.492Z,99027.01
2018-12-26T00:21:49.666Z,99020.36
2018-12-26T00:24:18.004Z,99016.26
2018-12-26T00:26:46.197Z,99012.37
2018-12-26T00:29:14.366Z,99006.91
2018-12-26T00:31:42.586Z,99000.91
2018-12-26T00:34:10.770Z,99001.34
2018-12-26T00:36:38.941Z,98994.41
2018-12-26T00:39:07.518Z,98989.44
2018-12-26T00:41:35.702Z,98992.14
2018-12-26T00:44:03.921Z,98975.96
2018-12-26T00:46:32.073Z,98973.31
2018-12-26T00:49:00.298Z,98967.81
2018-12-26T00:51:28.564Z,98969.58
2018-12-26T00:53:56.698Z,98969.12
2018-12-26T00:56:24.928Z,98974.48
2018-12-26T00:58:53.147Z,98974.70
2018-12-26T01:01:21.306Z,98980.06
2018-12-26T01:03:49.557Z,98974.07
2018-12-26T01:06:17.841Z,98974.61
2018-12-26T01:08:46.053Z,98981.28
2018-12-26T01:11:14.262Z,98987.03
2018-12-26T01:13:42.393Z,98993.48
2018-12-26T01:16:10.570Z,99003.88
2018-12-26T01:18:38.714Z,99010.23
2018-12-26T01:21:06.901Z,99004.30
2018-12-26T01:23:35.073Z,99009.23
2018-12-26T01:26:03.235Z,99013.58
2018-12-26T01:31:18.533Z,99010.23
2018-12-26T01:33:46.702Z,99003.72
2018-12-26T01:36:14.835Z,99002.27
2018-12-26T01:41:17.802Z,99019.41
2018-12-26T01:43:45.977Z,99018.12
2018-12-26T01:46:14.139Z,99011.72
2018-12-26T01:48:42.314Z,99009.44
2018-12-26T01:51:10.490Z,99015.38
2018-12-26T01:53:38.660Z,99022.06
2018-12-26T01:56:06.835Z,99014.47
2018-12-26T01:58:34.986Z,99007.09
2018-12-26T02:01:03.137Z,98945.44
2018-12-26T02:03:31.363Z,99015.60
2018-12-26T02:05:59.544Z,99010.42
2018-12-26T02:08:27.726Z,98993.63
2018-12-26T02:10:55.905Z,98988.11
2018-12-26T02:13:24.185Z,98981.80
2018-12-26T02:15:52.370Z,98984.47
2018-12-26T02:18:20.635Z,98984.88
2018-12-26T02:20:48.776Z,98991.08
2018-12-26T02:23:17.000Z,98976.85
2018-12-26T02:25:45.149Z,98963.48
2018-12-26T02:28:13.353Z,98969.75
2018-12-26T02:30:41.516Z,98957.65
2018-12-26T02:33:09.724Z,98950.89
2018-12-26T02:35:56.833Z,98946.91
2018-12-26T02:41:12.197Z,98953.79
2018-12-26T02:43:40.370Z,98942.98
2018-12-26T02:46:08.538Z,98934.97
2018-12-26T02:48:36.724Z,98938.12
2018-12-26T02:51:04.874Z,98932.89
2018-12-26T02:53:33.064Z,98940.72
2018-12-26T02:56:01.245Z,98944.70
2018-12-26T02:58:29.409Z,98931.23
2018-12-26T03:00:57.566Z,98935.64
2018-12-26T03:06:37.382Z,98906.95
2018-12-26T03:09:06.811Z,98890.64
2018-12-26T03:11:53.849Z,98891.83
2018-12-26T03:14:41.073Z,98889.05
2018-12-26T03:17:09.298Z,98877.20
2018-12-26T03:19:37.474Z,98866.64
2018-12-26T03:22:05.775Z,98866.64
2018-12-26T03:24:34.011Z,98870.69
2018-12-26T03:27:02.156Z,98865.50
2018-12-26T03:32:17.423Z,98863.34
2018-12-26T03:37:32.863Z,98848.09
2018-12-26T03:40:01.036Z,98843.39
2018-12-26T03:42:29.265Z,98846.38
2018-12-26T03:44:57.466Z,98847.05
2018-12-26T03:47:25.753Z,98847.43
2018-12-26T03:49:53.869Z,98854.69
2018-12-26T03:52:22.019Z,98856.39
2018-12-26T03:54:50.199Z,98839.92
2018-12-26T03:57:18.350Z,98836.98
2018-12-26T03:59:46.518Z,98841.55
2018-12-26T04:04:48.592Z,98850.08
2018-12-26T04:07:16.790Z,98841.69
2018-12-26T04:09:44.952Z,98846.14
2018-12-26T04:12:13.106Z,98850.30
2018-12-26T04:14:41.337Z,98847.09
2018-12-26T04:17:09.478Z,98848.55
2018-12-26T04:19:37.693Z,98850.57
2018-12-26T04:22:05.879Z,98847.95
2018-12-26T04:24:53.119Z,98791.69
2018-12-26T04:27:40.398Z,98838.11
2018-12-26T04:30:27.644Z,98847.09
2018-12-26T04:32:55.782Z,98833.95
2018-12-26T04:35:23.992Z,98830.65
2018-12-26T04:37:52.140Z,98831.41
2018-12-26T04:40:20.347Z,98847.20
2018-12-26T04:42:48.486Z,98851.73
2018-12-26T04:45:16.643Z,98864.34
2018-12-26T04:47:44.862Z,98876.97
2018-12-26T04:50:13.152Z,98880.66
2018-12-26T04:52:41.280Z,98875.13
2018-12-26T04:55:28.365Z,98874.41
2018-12-26T04:57:56.516Z,98879.02
2018-12-26T05:00:24.645Z,98872.89
2018-12-26T05:02:52.805Z,98866.17
2018-12-26T05:05:20.979Z,98864.66
2018-12-26T05:07:49.115Z,98880.84
2018-12-26T05:10:17.256Z,98885.47
2018-12-26T05:12:45.469Z,98885.41
2018-12-26T05:15:13.646Z,98889.18
2018-12-26T05:17:41.838Z,98886.38
2018-12-26T05:20:10.005Z,98884.27
2018-12-26T05:22:38.244Z,98892.66
2018-12-26T05:25:06.442Z,98895.74
2018-12-26T05:27:34.671Z,98892.34
2018-12-26T05:30:02.786Z,98887.02
2018-12-26T05:32:30.991Z,98887.27
2018-12-26T05:34:59.167Z,98882.38
2018-12-26T05:37:27.353Z,98881.16
2018-12-26T05:40:14.588Z,98886.67
2018-12-26T05:42:42.730Z,98888.88
2018-12-26T05:45:10.906Z,98883.56
2018-12-26T05:50:26.175Z,98869.95
2018-12-26T05:52:54.321Z,98868.08
2018-12-26T05:55:22.518Z,98871.64
2018-12-26T05:57:50.685Z,98873.61
2018-12-26T06:00:18.849Z,98867.91
2018-12-26T06:08:21.727Z,98878.81
2018-12-26T06:10:49.965Z,98875.00
2018-12-26T06:13:18.175Z,98883.62
2018-12-26T06:16:05.293Z,98888.62
2018-12-26T06:18:33.425Z,98898.35
2018-12-26T06:21:20.690Z,98904.56
2018-12-26T06:24:07.753Z,98908.67
2018-12-26T06:26:35.953Z,98918.41
2018-12-26T06:29:23.178Z,98911.35
2018-12-26T06:31:51.422Z,98908.30
2018-12-26T06:34:19.697Z,98915.89
2018-12-26T06:37:06.943Z,98912.44
2018-12-26T06:39:35.111Z,98895.68
2018-12-26T06:42:03.325Z,98893.81
2018-12-26T06:44:32.634Z,98887.46
2018-12-26T06:47:01.479Z,98882.11
2018-12-26T06:49:29.710Z,98871.59
2018-12-26T06:51:58.031Z,98873.70
2018-12-26T06:54:45.315Z,98879.75
2018-12-26T06:57:13.632Z,98881.58
2018-12-26T06:59:41.974Z,98888.69
2018-12-26T07:02:10.269Z,98890.52
2018-12-26T07:04:38.554Z,98900.62
2018-12-26T07:07:06.758Z,98901.92
2018-12-26T07:09:54.060Z,98890.04
2018-12-26T07:12:22.292Z,98882.05
2018-12-26T07:14:50.510Z,98906.59
2018-12-26T07:17:18.746Z,98932.73
2018-12-26T07:19:47.059Z,98928.83
2018-12-26T07:22:34.438Z,98919.83
2018-12-26T07:25:02.698Z,98917.47
2018-12-26T07:27:30.953Z,98924.88
2018-12-26T07:29:59.166Z,98929.94
2018-12-26T07:32:27.545Z,98928.92
2018-12-26T07:34:55.809Z,98928.45
2018-12-26T07:37:24.194Z,98922.23
2018-12-26T07:39:52.434Z,98922.05
2018-12-26T07:42:20.719Z,98921.95
2018-12-26T07:44:48.969Z,98911.84
2018-12-26T07:47:17.151Z,98899.86
2018-12-26T07:49:45.417Z,98901.06
2018-12-26T07:52:13.594Z,98901.31
2018-12-26T07:54:41.878Z,98898.80
2018-12-26T07:57:10.066Z,98897.74
2018-12-26T07:59:38.299Z,98887.82
2018-12-26T08:02:06.539Z,98895.63
2018-12-26T08:04:35.141Z,98893.13
2018-12-26T08:07:03.759Z,98895.16
2018-12-26T08:09:32.295Z,98903.66
2018-12-26T08:12:00.857Z,98910.73
2018-12-26T08:14:29.496Z,98906.50
2018-12-26T08:16:58.098Z,98907.27
2018-12-26T08:19:26.652Z,98913.67
2018-12-26T08:21:54.866Z,98915.80
2018-12-26T08:24:23.081Z,98929.40
2018-12-26T08:26:53.582Z,98933.01
2018-12-26T08:29:21.282Z,98940.47
2018-12-26T08:31:49.583Z,98937.92
2018-12-26T08:34:17.842Z,98937.69
2018-12-26T08:36:46.251Z,98936.91
2018-12-26T08:39:14.523Z,98939.22
2018-12-26T08:41:42.820Z,98947.41
2018-12-26T08:44:11.098Z,98946.34
2018-12-26T08:46:39.314Z,98950.91
2018-12-26T08:49:07.515Z,98952.80
2018-12-26T08:51:35.688Z,98950.20
2018-12-26T08:54:03.915Z,98948.03
2018-12-26T08:56:32.165Z,98945.30
2018-12-26T08:59:00.314Z,98940.66
2018-12-26T09:01:28.546Z,98936.92
2018-12-26T09:03:56.763Z,98928.98
2018-12-26T09:06:24.954Z,98931.91
2018-12-26T09:08:53.268Z,98933.16
2018-12-26T09:11:21.530Z,98927.58
2018-12-26T09:13:49.841Z,98933.16
2018-12-26T09:16:18.137Z,98934.36
2018-12-26T09:18:46.449Z,98944.23
2018-12-26T09:21:14.711Z,98945.77
2018-12-26T09:23:42.948Z,98948.03
2018-12-26T09:26:11.959Z,98949.05
2018-12-26T09:28:43.874Z,98946.68
2018-12-26T09:31:10.063Z,98949.86
2018-12-26T09:33:38.286Z,98949.86
2018-12-26T09:36:06.568Z,98950.44
2018-12-26T09:38:34.773Z,98952.40
2018-12-26T09:41:03.027Z,98942.89
2018-12-26T09:43:31.262Z,98952.80
2018-12-26T09:45:59.400Z,98958.86
2018-12-26T09:48:27.634Z,98963.14
2018-12-26T09:50:55.805Z,98955.34
2018-12-26T09:53:24.092Z,98953.12
2018-12-26T09:55:52.365Z,98949.49
2018-12-26T09:58:20.623Z,98949.77
2018-12-26T10:00:48.893Z,98953.34
2018-12-26T10:03:17.109Z,98951.14
2018-12-26T10:05:45.366Z,98942.52
2018-12-26T10:08:13.640Z,98940.31
2018-12-26T10:10:41.818Z,98944.84
2018-12-26T10:13:10.084Z,98942.14
2018-12-26T10:15:38.285Z,98931.61
2018-12-26T10:18:06.538Z,98927.53
2018-12-26T10:20:34.838Z,98922.72
2018-12-26T10:23:03.049Z,98922.72
2018-12-26T10:25:31.259Z,98926.51
2018-12-26T10:27:59.566Z,98925.20
2018-12-26T10:30:27.775Z,98926.22
2018-12-26T10:32:55.983Z,98926.22
2018-12-26T10:35:24.313Z,98915.20
2018-12-26T10:37:52.546Z,98915.48
2018-12-26T10:40:20.803Z,98913.58
2018-12-26T10:42:49.062Z,98921.17
2018-12-26T10:45:17.273Z,98908.14
2018-12-26T10:47:45.452Z,98907.66
2018-12-26T10:50:13.653Z,98905.25
2018-12-26T10:52:41.886Z,98908.75
2018-12-26T10:55:10.122Z,98903.95
2018-12-26T10:57:38.338Z,98895.05
2018-12-26T11:00:07.602Z,98895.78
2018-12-26T11:02:35.831Z,98899.86
2018-12-26T11:05:04.080Z,98894.52
2018-12-26T11:07:32.265Z,98892.03
2018-12-26T11:10:00.501Z,98888.84
2018-12-26T11:12:28.705Z,98878.70
2018-12-26T11:14:56.874Z,98874.03
2018-12-26T11:17:25.128Z,98878.65
2018-12-26T11:19:53.416Z,98876.01
2018-12-26T11:22:21.628Z,98872.69
2018-12-26T11:24:49.857Z,98865.67
2018-12-26T11:27:18.029Z,98863.27
2018-12-26T11:29:46.195Z,98865.91
2018-12-26T11:32:14.395Z,98866.77
2018-12-26T11:34:42.618Z,98874.09
2018-12-26T11:37:10.856Z,98871.64
2018-12-26T11:39:39.131Z,98875.09
2018-12-26T11:42:07.374Z,98872.78
2018-12-26T11:44:35.623Z,98874.33
2018-12-26T11:47:03.818Z,98869.80
2018-12-26T11:49:32.151Z,98873.34
2018-12-26T11:52:00.419Z,98870.09
2018-12-26T11:54:28.652Z,98869.81
2018-12-26T11:56:56.875Z,98863.84
2018-12-26T11:59:27.331Z,98863.64
2018-12-26T12:01:55.026Z,98865.48
2018-12-26T12:04:23.454Z,98859.86
2018-12-26T12:06:51.618Z,98865.49
2018-12-26T12:09:19.886Z,98870.63
2018-12-26T12:11:48.113Z,98873.06
2018-12-26T12:14:16.422Z,98872.41
2018-12-26T12:16:44.756Z,98872.22
2018-12-26T12:19:12.970Z,98865.64
2018-12-26T12:21:41.328Z,98871.06
2018-12-26T12:24:09.556Z,98871.81
2018-12-26T12:26:37.952Z,98868.97
2018-12-26T12:29:06.175Z,98874.86
2018-12-26T12:31:34.387Z,98884.03
2018-12-26T12:34:02.675Z,98882.23
2018-12-26T12:36:30.909Z,98879.30
2018-12-26T12:38:59.197Z,98881.74
2018-12-26T12:41:27.430Z,98883.38
2018-12-26T12:43:55.710Z,98877.17
2018-12-26T12:46:23.950Z,98875.53
2018-12-26T12:48:52.153Z,98874.19
2018-12-26T12:51:20.394Z,98865.26
2018-12-26T12:53:48.634Z,98866.64
2018-12-26T12:56:16.889Z,98873.13
2018-12-26T12:58:45.126Z,98869.09
2018-12-26T13:01:13.323Z,98859.95
2018-12-26T13:03:46.458Z,98864.81
2018-12-26T13:06:11.805Z,98854.91
2018-12-26T13:08:40.082Z,98851.12
2018-12-26T13:11:08.307Z,98848.66
2018-12-26T13:13:36.569Z,98847.60
2018-12-26T13:16:04.888Z,98853.60
2018-12-26T13:18:33.169Z,98851.93
2018-12-26T13:21:01.513Z,98856.67
2018-12-26T13:23:35.711Z,98855.48
2018-12-26T13:26:03.940Z,98851.44
2018-12-26T13:28:32.230Z,98856.63
2018-12-26T13:31:05.011Z,98858.25
2018-12-26T13:33:33.513Z,98872.20
2018-12-26T13:36:01.853Z,98877.30
2018-12-26T13:38:30.064Z,98878.94
2018-12-26T13:40:58.309Z,98890.77
2018-12-26T13:43:26.617Z,98897.30
2018-12-26T13:45:54.926Z,98906.30
2018-12-26T13:48:23.302Z,98894.80
2018-12-26T13:50:51.569Z,98900.55
2018-12-26T13:53:19.797Z,98905.57
2018-12-26T13:55:48.097Z,98899.98
2018-12-26T13:58:16.380Z,98903.73
2018-12-26T14:00:44.641Z,98907.48
2018-12-26T14:03:12.806Z,98899.45
2018-12-26T14:05:41.071Z,98894.60
2018-12-26T14:08:09.330Z,98896.55
2018-12-26T14:10:37.568Z,98909.20
2018-12-26T14:13:05.806Z,98911.89
2018-12-26T14:15:34.011Z,98903.73
2018-12-26T14:18:02.246Z,98897.05
2018-12-26T14:20:30.517Z,98898.92
2018-12-26T14:22:58.878Z,98891.95
2018-12-26T14:25:27.258Z,98895.95
2018-12-26T14:27:55.532Z,98895.45
2018-12-26T14:30:23.778Z,98904.38
2018-12-26T14:32:52.098Z,98902.75
2018-12-26T14:35:20.349Z,98910.50
2018-12-26T14:37:48.618Z,98909.98
2018-12-26T14:40:16.860Z,98911.32
2018-12-26T14:42:45.174Z,98906.79
2018-12-26T14:45:13.517Z,98902.83
2018-12-26T14:47:41.776Z,98901.04
2018-12-26T14:50:10.338Z,98899.78
2018-12-26T14:52:38.577Z,98902.96
2018-12-26T14:55:06.818Z,98898.43
2018-12-26T14:57:35.052Z,98894.40
2018-12-26T15:00:03.343Z,98893.91
2018-12-26T15:02:31.654Z,98903.89
2018-12-26T15:04:59.943Z,98927.30
2018-12-26T15:07:28.263Z,98896.92
2018-12-26T15:09:56.578Z,98904.75
2018-12-26T15:12:24.835Z,98899.89
2018-12-26T15:14:53.030Z,98902.55
2018-12-26T15:17:21.809Z,98901.52
2018-12-26T15:19:50.071Z,98905.56
2018-12-26T15:22:18.299Z,98893.24
2018-12-26T15:24:46.504Z,98897.56
2018-12-26T15:27:14.715Z,98887.02
2018-12-26T15:29:42.945Z,98892.43
2018-12-26T15:32:11.157Z,98901.32
2018-12-26T15:34:39.374Z,98899.44
2018-12-26T15:37:07.485Z,98899.69
2018-12-26T15:39:35.631Z,98910.20
2018-12-26T15:42:03.801Z,98906.72
2018-12-26T15:44:31.922Z,98906.67
2018-12-26T15:47:00.061Z,98906.51
2018-12-26T15:49:28.202Z,98902.80
2018-12-26T15:51:56.329Z,98896.68
2018-12-26T15:54:24.501Z,98893.73
2018-12-26T15:56:52.633Z,98897.56
2018-12-26T15:59:20.782Z,98896.43
2018-12-26T16:01:48.949Z,98899.58
2018-12-26T16:04:17.061Z,98900.47
2018-12-26T16:06:45.177Z,98900.72
2018-12-26T16:09:13.304Z,98905.84
2018-12-26T16:11:41.441Z,98897.31
2018-12-26T16:14:09.561Z,98907.52
2018-12-26T16:16:37.686Z,98920.47
2018-12-26T16:19:05.797Z,98915.09
2018-12-26T16:21:33.913Z,98912.92
2018-12-26T16:24:02.068Z,98904.89
2018-12-26T16:26:30.194Z,98904.58
2018-12-26T16:28:58.353Z,98895.73
2018-12-26T16:31:26.534Z,98899.77
2018-12-26T16:33:54.645Z,98904.58
2018-12-26T16:36:22.802Z,98891.69
2018-12-26T16:38:50.917Z,98896.02
2018-12-26T16:41:19.090Z,98896.50
2018-12-26T16:43:47.230Z,98892.71
2018-12-26T16:46:15.346Z,98898.66
2018-12-26T16:48:43.458Z,98885.00
2018-12-26T16:51:11.655Z,98881.78
2018-12-26T16:53:39.809Z,98883.34
2018-12-26T16:56:07.937Z,98887.08
2018-12-26T16:58:36.075Z,98897.08
2018-12-26T17:01:04.199Z,98893.07
2018-12-26T17:03:32.334Z,98892.50
2018-12-26T17:06:00.469Z,98893.07
2018-12-26T17:08:28.586Z,98891.80
2018-12-26T17:10:56.709Z,98892.83
2018-12-26T17:13:24.883Z,98888.23
2018-12-26T17:15:53.001Z,98889.36
2018-12-26T17:18:21.138Z,98893.92
2018-12-26T17:20:49.302Z,98890.42
2018-12-26T17:23:17.441Z,98888.79
2018-12-26T17:25:45.578Z,98892.86
2018-12-26T17:28:13.942Z,98892.65
2018-12-26T17:30:42.061Z,98899.30
2018-12-26T17:33:10.184Z,98900.40
2018-12-26T17:35:38.382Z,98902.06
2018-12-26T17:38:06.515Z,98904.78
2018-12-26T17:40:34.633Z,98902.09
2018-12-26T17:43:02.769Z,98899.12
2018-12-26T17:45:32.336Z,98903.72
2018-12-26T17:48:00.544Z,98901.84
2018-12-26T17:50:42.094Z,98906.13
2018-12-26T17:53:11.701Z,98906.66
2018-12-26T17:55:57.891Z,98912.89
2018-12-26T17:58:26.889Z,98903.72
2018-12-26T18:01:26.519Z,98900.75
2018-12-26T18:03:54.713Z,98903.63
2018-12-26T18:06:22.854Z,98899.23
2018-12-26T18:08:50.977Z,98901.99
2018-12-26T18:11:19.108Z,98904.25
2018-12-26T18:13:47.468Z,98898.88
2018-12-26T18:16:15.589Z,98904.50
2018-12-26T18:18:43.701Z,98908.81
2018-12-26T18:21:11.839Z,98905.00
2018-12-26T18:23:40.032Z,98904.25
2018-12-26T18:26:08.173Z,98895.97
2018-12-26T18:28:36.364Z,98903.48
2018-12-26T18:31:04.518Z,98900.54
2018-12-26T18:33:32.641Z,98898.19
2018-12-26T18:36:00.752Z,98898.13
2018-12-26T18:38:28.905Z,98897.31
2018-12-26T18:40:57.017Z,98895.50
2018-12-26T18:43:25.167Z,98887.09
2018-12-26T18:45:53.306Z,98888.16
2018-12-26T18:48:21.431Z,98887.13
2018-12-26T18:50:49.610Z,98882.06
2018-12-26T18:53:17.790Z,98883.63
2018-12-26T18:55:45.990Z,98886.34
2018-12-26T18:58:14.111Z,98883.91
2018-12-26T19:00:42.233Z,98882.84
2018-12-26T19:03:10.428Z,98884.47
2018-12-26T19:05:38.562Z,98883.59
2018-12-26T19:08:06.726Z,98889.31
2018-12-26T19:10:35.146Z,98889.28
2018-12-26T19:13:03.297Z,98892.34
2018-12-26T19:15:31.602Z,98896.18
2018-12-26T19:17:59.725Z,98889.61
2018-12-26T19:20:30.716Z,98892.86
2018-12-26T19:22:59.831Z,98890.98
2018-12-26T19:25:28.560Z,98892.30
2018-12-26T19:27:56.735Z,98891.97
2018-12-26T19:30:25.020Z,98890.20
2018-12-26T19:32:53.342Z,98889.36
2018-12-26T19:35:21.983Z,98896.12
2018-12-26T19:37:50.291Z,98886.16
2018-12-26T19:40:18.639Z,98893.53
2018-12-26T19:42:47.746Z,98889.78
2018-12-26T19:45:16.921Z,98883.05
2018-12-26T19:47:45.812Z,98885.00
2018-12-26T19:50:14.037Z,98889.50
2018-12-26T19:52:42.203Z,98883.86
2018-12-26T19:55:10.884Z,98884.19
2018-12-26T19:57:39.080Z,98876.93
2018-12-26T20:00:07.678Z,98873.46
2018-12-26T20:02:35.951Z,98869.99
2018-12-26T20:05:05.353Z,98872.44
2018-12-26T20:07:33.590Z,98869.75
2018-12-26T20:10:01.835Z,98870.53
2018-12-26T20:12:29.993Z,98868.90
2018-12-26T20:14:58.210Z,98872.44
2018-12-26T20:17:26.434Z,98874.03
2018-12-26T20:19:54.785Z,98877.50
2018-12-26T20:22:22.971Z,98869.75
2018-12-26T20:24:51.238Z,98878.10
2018-12-26T20:27:19.437Z,98872.97
2018-12-26T20:29:47.595Z,98872.72
2018-12-26T20:32:15.931Z,98869.75
2018-12-26T20:34:44.090Z,98867.63
2018-12-26T20:37:12.457Z,98862.78
2018-12-26T20:39:40.721Z,98865.47
2018-12-26T20:42:08.893Z,98865.78
2018-12-26T20:44:37.183Z,98860.97
2018-12-26T20:47:05.326Z,98861.75
2018-12-26T20:49:33.646Z,98864.44
2018-12-26T20:52:01.847Z,98867.41
2018-12-26T20:54:30.125Z,98859.34
2018-12-26T20:56:58.298Z,98862.32
2018-12-26T20:59:26.544Z,98855.52
2018-12-26T21:01:54.685Z,98861.75
2018-12-26T21:04:22.861Z,98857.72
2018-12-26T21:06:51.269Z,98861.39
2018-12-26T21:09:19.578Z,98860.20
2018-12-26T21:11:47.774Z,98859.42
2018-12-26T21:14:16.046Z,98856.45
2018-12-26T21:16:44.252Z,98853.48
2018-12-26T21:19:12.601Z,98857.30
2018-12-26T21:21:40.818Z,98852.98
2018-12-26T21:24:08.985Z,98854.89
2018-12-26T21:26:37.159Z,98851.70
2018-12-26T21:29:05.340Z,98848.95
2018-12-26T21:31:34.186Z,98850.33
2018-12-26T21:34:02.451Z,98847.10
2018-12-26T21:36:30.618Z,98842.86
2018-12-26T21:38:58.807Z,98841.27
2018-12-26T21:41:27.050Z,98843.92
2018-12-26T21:43:55.242Z,98837.48
2018-12-26T21:46:23.446Z,98836.95
2018-12-26T21:48:51.679Z,98832.66
2018-12-26T21:51:19.996Z,98833.52
2018-12-26T21:53:48.246Z,98829.76
2018-12-26T21:56:16.452Z,98830.58
2018-12-26T21:58:44.822Z,98828.41
2018-12-26T22:01:13.124Z,98830.53
2018-12-26T22:03:41.427Z,98831.64
2018-12-26T22:06:09.936Z,98827.89
2018-12-26T22:08:38.170Z,98825.73
2018-12-26T22:11:06.353Z,98829.76
2018-12-26T22:13:34.609Z,98832.38
2018-12-26T22:16:02.825Z,98826.43
2018-12-26T22:18:31.033Z,98832.73
2018-12-26T22:20:59.157Z,98827.93
2018-12-26T22:23:27.318Z,98831.75
2018-12-26T22:25:55.483Z,98823.69
2018-12-26T22:28:23.623Z,98819.16
2018-12-26T22:30:51.800Z,98694.66
2018-12-26T22:33:19.926Z,98824.78
2018-12-26T22:35:48.102Z,98821.28
2018-12-26T22:38:16.297Z,98818.13
2018-12-26T22:40:44.457Z,98820.78
2018-12-26T22:43:12.643Z,98815.44
2018-12-26T22:45:44.108Z,98815.97
2018-12-26T22:48:10.660Z,98809.78
2018-12-26T22:50:38.865Z,98815.48
2018-12-26T22:53:08.980Z,98818.38
2018-12-26T22:55:37.193Z,98809.82
2018-12-26T22:58:05.405Z,98813.03
2018-12-26T23:00:43.399Z,98814.91
2018-12-26T23:03:11.684Z,98807.59
2018-12-26T23:05:39.885Z,98808.78
2018-12-26T23:08:08.234Z,98806.41
2018-12-26T23:10:36.915Z,98810.94
2018-12-26T23:13:05.360Z,98817.38
2018-12-26T23:15:33.569Z,98817.09
2018-12-26T23:18:01.869Z,98817.02
2018-12-26T23:20:30.250Z,98815.45
2018-12-26T23:22:58.454Z,98815.95
2018-12-26T23:25:26.670Z,98814.89
2018-12-26T23:27:54.946Z,98817.09
2018-12-26T23:30:23.084Z,98814.53
2018-12-26T23:32:51.315Z,98821.13
2018-12-26T23:35:19.581Z,98829.60
2018-12-26T23:37:47.700Z,98825.61
2018-12-26T23:40:15.883Z,98822.34
2018-12-26T23:42:44.031Z,98823.41
2018-12-26T23:45:12.225Z,98820.58
2018-12-26T23:47:40.450Z,98806.86
2018-12-26T23:50:08.618Z,98805.97
2018-12-26T23:52:36.811Z,98807.67
2018-12-26T23:55:05.057Z,98810.89
2018-12-26T23:57:33.266Z,98810.16
